sensor_id;sensor_type;location;lat;lon;timestamp;P1;durP1;ratioP1;P2;durP2;ratioP2
11709;SDS011;5911;51.036;6.972;2022-07-24T00:02:23;6.47;;;5.20;;
11709;SDS011;5911;51.036;6.972;2022-07-24T00:04:51;7.05;;;5.03;;
11709;SDS011;5911;51.036;6.972;2022-07-24T00:07:23;5.60;;;5.05;;
11709;SDS011;5911;51.036;6.972;2022-07-24T00:09:51;5.82;;;5.05;;
11709;SDS011;5911;51.036;6.972;2022-07-24T00:12:19;6.18;;;5.50;;
11709;SDS011;5911;51.036;6.972;2022-07-24T00:14:47;6.18;;;5.28;;
11709;SDS011;5911;51.036;6.972;2022-07-24T00:17:15;5.43;;;4.93;;
11709;SDS011;5911;51.036;6.972;2022-07-24T00:19:44;7.15;;;6.03;;
11709;SDS011;5911;51.036;6.972;2022-07-24T00:22:12;7.88;;;6.18;;
11709;SDS011;5911;51.036;6.972;2022-07-24T00:24:40;6.35;;;5.72;;
11709;SDS011;5911;51.036;6.972;2022-07-24T00:27:08;7.00;;;6.30;;
11709;SDS011;5911;51.036;6.972;2022-07-24T00:29:36;10.50;;;7.03;;
11709;SDS011;5911;51.036;6.972;2022-07-24T00:32:04;8.38;;;6.38;;
11709;SDS011;5911;51.036;6.972;2022-07-24T00:34:32;8.43;;;5.75;;
11709;SDS011;5911;51.036;6.972;2022-07-24T00:37:01;7.55;;;6.75;;
11709;SDS011;5911;51.036;6.972;2022-07-24T00:39:29;7.28;;;5.88;;
11709;SDS011;5911;51.036;6.972;2022-07-24T00:41:57;7.82;;;7.03;;
11709;SDS011;5911;51.036;6.972;2022-07-24T00:44:25;9.50;;;6.90;;
11709;SDS011;5911;51.036;6.972;2022-07-24T00:46:53;8.30;;;6.72;;
11709;SDS011;5911;51.036;6.972;2022-07-24T00:49:21;8.35;;;6.20;;
11709;SDS011;5911;51.036;6.972;2022-07-24T00:51:52;8.77;;;6.57;;
11709;SDS011;5911;51.036;6.972;2022-07-24T00:54:21;6.78;;;5.97;;
11709;SDS011;5911;51.036;6.972;2022-07-24T00:56:51;7.63;;;6.20;;
11709;SDS011;5911;51.036;6.972;2022-07-24T00:59:21;7.55;;;6.80;;
11709;SDS011;5911;51.036;6.972;2022-07-24T01:01:50;9.32;;;6.70;;
11709;SDS011;5911;51.036;6.972;2022-07-24T01:04:19;9.70;;;6.43;;
11709;SDS011;5911;51.036;6.972;2022-07-24T01:06:47;8.10;;;6.65;;
11709;SDS011;5911;51.036;6.972;2022-07-24T01:09:15;7.82;;;6.38;;
11709;SDS011;5911;51.036;6.972;2022-07-24T01:11:46;6.90;;;6.20;;
11709;SDS011;5911;51.036;6.972;2022-07-24T01:14:14;10.00;;;6.30;;
11709;SDS011;5911;51.036;6.972;2022-07-24T01:16:42;7.07;;;6.38;;
11709;SDS011;5911;51.036;6.972;2022-07-24T01:19:11;7.72;;;6.25;;
11709;SDS011;5911;51.036;6.972;2022-07-24T01:21:45;6.88;;;6.20;;
11709;SDS011;5911;51.036;6.972;2022-07-24T01:24:14;6.78;;;6.18;;
11709;SDS011;5911;51.036;6.972;2022-07-24T01:26:42;10.30;;;6.03;;
11709;SDS011;5911;51.036;6.972;2022-07-24T01:29:11;9.57;;;6.05;;
11709;SDS011;5911;51.036;6.972;2022-07-24T01:31:39;7.95;;;5.65;;
11709;SDS011;5911;51.036;6.972;2022-07-24T01:34:07;6.68;;;6.07;;
11709;SDS011;5911;51.036;6.972;2022-07-24T01:36:35;5.80;;;5.30;;
11709;SDS011;5911;51.036;6.972;2022-07-24T01:39:05;6.78;;;5.95;;
11709;SDS011;5911;51.036;6.972;2022-07-24T01:41:33;6.88;;;5.88;;
11709;SDS011;5911;51.036;6.972;2022-07-24T01:44:01;6.15;;;5.55;;
11709;SDS011;5911;51.036;6.972;2022-07-24T01:46:29;6.40;;;5.80;;
11709;SDS011;5911;51.036;6.972;2022-07-24T01:48:57;6.38;;;5.78;;
11709;SDS011;5911;51.036;6.972;2022-07-24T01:51:25;6.05;;;5.53;;
11709;SDS011;5911;51.036;6.972;2022-07-24T01:53:53;6.22;;;5.47;;
11709;SDS011;5911;51.036;6.972;2022-07-24T01:56:22;6.38;;;5.75;;
11709;SDS011;5911;51.036;6.972;2022-07-24T01:58:53;6.70;;;5.88;;
11709;SDS011;5911;51.036;6.972;2022-07-24T02:01:21;6.32;;;5.72;;
11709;SDS011;5911;51.036;6.972;2022-07-24T02:03:49;6.10;;;5.50;;
11709;SDS011;5911;51.036;6.972;2022-07-24T02:06:17;6.35;;;5.85;;
11709;SDS011;5911;51.036;6.972;2022-07-24T02:08:45;6.93;;;6.32;;
11709;SDS011;5911;51.036;6.972;2022-07-24T02:11:13;6.10;;;5.60;;
11709;SDS011;5911;51.036;6.972;2022-07-24T02:13:42;6.57;;;5.97;;
11709;SDS011;5911;51.036;6.972;2022-07-24T02:16:11;6.03;;;5.53;;
11709;SDS011;5911;51.036;6.972;2022-07-24T02:18:39;6.32;;;5.70;;
11709;SDS011;5911;51.036;6.972;2022-07-24T02:21:07;6.00;;;5.50;;
11709;SDS011;5911;51.036;6.972;2022-07-24T02:23:35;6.10;;;5.50;;
11709;SDS011;5911;51.036;6.972;2022-07-24T02:26:03;5.15;;;4.75;;
11709;SDS011;5911;51.036;6.972;2022-07-24T02:28:30;6.60;;;6.00;;
11709;SDS011;5911;51.036;6.972;2022-07-24T02:31:00;6.85;;;5.50;;
11709;SDS011;5911;51.036;6.972;2022-07-24T02:33:27;7.60;;;5.82;;
11709;SDS011;5911;51.036;6.972;2022-07-24T02:35:55;8.10;;;6.07;;
11709;SDS011;5911;51.036;6.972;2022-07-24T02:38:23;6.47;;;5.57;;
11709;SDS011;5911;51.036;6.972;2022-07-24T02:40:51;6.85;;;5.57;;
11709;SDS011;5911;51.036;6.972;2022-07-24T02:43:19;6.35;;;5.75;;
11709;SDS011;5911;51.036;6.972;2022-07-24T02:45:47;6.00;;;5.40;;
11709;SDS011;5911;51.036;6.972;2022-07-24T02:48:20;8.77;;;6.30;;
11709;SDS011;5911;51.036;6.972;2022-07-24T02:50:48;7.32;;;5.43;;
11709;SDS011;5911;51.036;6.972;2022-07-24T02:53:16;6.22;;;5.63;;
11709;SDS011;5911;51.036;6.972;2022-07-24T02:55:44;6.97;;;5.30;;
11709;SDS011;5911;51.036;6.972;2022-07-24T02:58:12;8.30;;;6.15;;
11709;SDS011;5911;51.036;6.972;2022-07-24T03:00:40;6.88;;;5.97;;
11709;SDS011;5911;51.036;6.972;2022-07-24T03:03:08;6.53;;;5.88;;
11709;SDS011;5911;51.036;6.972;2022-07-24T03:05:37;6.40;;;5.13;;
11709;SDS011;5911;51.036;6.972;2022-07-24T03:08:05;6.10;;;5.30;;
11709;SDS011;5911;51.036;6.972;2022-07-24T03:10:33;6.30;;;5.53;;
11709;SDS011;5911;51.036;6.972;2022-07-24T03:13:03;6.10;;;5.50;;
11709;SDS011;5911;51.036;6.972;2022-07-24T03:15:31;6.30;;;5.57;;
11709;SDS011;5911;51.036;6.972;2022-07-24T03:17:59;6.00;;;5.20;;
11709;SDS011;5911;51.036;6.972;2022-07-24T03:20:28;9.13;;;5.43;;
11709;SDS011;5911;51.036;6.972;2022-07-24T03:23:00;8.07;;;6.15;;
11709;SDS011;5911;51.036;6.972;2022-07-24T03:25:28;7.00;;;6.30;;
11709;SDS011;5911;51.036;6.972;2022-07-24T03:27:56;10.48;;;6.35;;
11709;SDS011;5911;51.036;6.972;2022-07-24T03:30:24;6.97;;;6.32;;
11709;SDS011;5911;51.036;6.972;2022-07-24T03:32:52;9.43;;;6.97;;
11709;SDS011;5911;51.036;6.972;2022-07-24T03:35:20;10.70;;;7.22;;
11709;SDS011;5911;51.036;6.972;2022-07-24T03:37:48;7.72;;;6.18;;
11709;SDS011;5911;51.036;6.972;2022-07-24T03:40:17;10.45;;;6.85;;
11709;SDS011;5911;51.036;6.972;2022-07-24T03:42:45;7.88;;;7.05;;
11709;SDS011;5911;51.036;6.972;2022-07-24T03:45:13;8.32;;;6.70;;
11709;SDS011;5911;51.036;6.972;2022-07-24T03:47:41;11.00;;;7.80;;
11709;SDS011;5911;51.036;6.972;2022-07-24T03:50:08;8.65;;;7.75;;
11709;SDS011;5911;51.036;6.972;2022-07-24T03:52:36;9.13;;;7.23;;
11709;SDS011;5911;51.036;6.972;2022-07-24T03:55:04;10.50;;;7.22;;
11709;SDS011;5911;51.036;6.972;2022-07-24T03:57:35;10.40;;;6.93;;
11709;SDS011;5911;51.036;6.972;2022-07-24T04:00:03;9.90;;;7.65;;
11709;SDS011;5911;51.036;6.972;2022-07-24T04:02:37;11.88;;;7.50;;
11709;SDS011;5911;51.036;6.972;2022-07-24T04:05:06;10.02;;;6.82;;
11709;SDS011;5911;51.036;6.972;2022-07-24T04:07:35;9.00;;;6.70;;
11709;SDS011;5911;51.036;6.972;2022-07-24T04:10:04;10.32;;;6.97;;
11709;SDS011;5911;51.036;6.972;2022-07-24T04:12:35;12.98;;;7.63;;
11709;SDS011;5911;51.036;6.972;2022-07-24T04:15:03;8.73;;;6.93;;
11709;SDS011;5911;51.036;6.972;2022-07-24T04:17:32;7.78;;;6.97;;
11709;SDS011;5911;51.036;6.972;2022-07-24T04:20:00;9.45;;;7.47;;
11709;SDS011;5911;51.036;6.972;2022-07-24T04:22:28;9.18;;;7.63;;
11709;SDS011;5911;51.036;6.972;2022-07-24T04:24:56;9.32;;;7.15;;
11709;SDS011;5911;51.036;6.972;2022-07-24T04:27:24;9.02;;;7.30;;
11709;SDS011;5911;51.036;6.972;2022-07-24T04:29:53;9.30;;;7.30;;
11709;SDS011;5911;51.036;6.972;2022-07-24T04:34:51;7.65;;;6.85;;
11709;SDS011;5911;51.036;6.972;2022-07-24T04:37:19;6.57;;;5.57;;
11709;SDS011;5911;51.036;6.972;2022-07-24T04:39:47;7.32;;;6.05;;
11709;SDS011;5911;51.036;6.972;2022-07-24T04:42:15;9.85;;;6.60;;
11709;SDS011;5911;51.036;6.972;2022-07-24T04:44:43;7.85;;;6.07;;
11709;SDS011;5911;51.036;6.972;2022-07-24T04:47:12;7.78;;;6.13;;
11709;SDS011;5911;51.036;6.972;2022-07-24T04:49:40;6.80;;;6.13;;
11709;SDS011;5911;51.036;6.972;2022-07-24T04:52:08;7.05;;;6.43;;
11709;SDS011;5911;51.036;6.972;2022-07-24T04:54:36;9.02;;;6.63;;
11709;SDS011;5911;51.036;6.972;2022-07-24T04:57:04;8.65;;;6.50;;
11709;SDS011;5911;51.036;6.972;2022-07-24T04:59:31;7.13;;;6.32;;
11709;SDS011;5911;51.036;6.972;2022-07-24T05:01:59;6.55;;;5.85;;
11709;SDS011;5911;51.036;6.972;2022-07-24T05:04:29;7.00;;;6.30;;
11709;SDS011;5911;51.036;6.972;2022-07-24T05:06:57;7.88;;;6.05;;
11709;SDS011;5911;51.036;6.972;2022-07-24T05:09:25;6.30;;;5.70;;
11709;SDS011;5911;51.036;6.972;2022-07-24T05:11:52;6.27;;;5.50;;
11709;SDS011;5911;51.036;6.972;2022-07-24T05:14:21;6.47;;;5.55;;
11709;SDS011;5911;51.036;6.972;2022-07-24T05:16:49;5.88;;;5.38;;
11709;SDS011;5911;51.036;6.972;2022-07-24T05:19:17;6.30;;;5.70;;
11709;SDS011;5911;51.036;6.972;2022-07-24T05:21:46;8.02;;;5.45;;
11709;SDS011;5911;51.036;6.972;2022-07-24T05:24:14;6.15;;;5.65;;
11709;SDS011;5911;51.036;6.972;2022-07-24T05:26:42;6.50;;;5.90;;
11709;SDS011;5911;51.036;6.972;2022-07-24T05:29:10;6.18;;;5.65;;
11709;SDS011;5911;51.036;6.972;2022-07-24T05:31:38;6.88;;;5.68;;
11709;SDS011;5911;51.036;6.972;2022-07-24T05:34:07;6.28;;;5.63;;
11709;SDS011;5911;51.036;6.972;2022-07-24T05:36:35;6.70;;;6.00;;
11709;SDS011;5911;51.036;6.972;2022-07-24T05:39:04;6.65;;;6.00;;
11709;SDS011;5911;51.036;6.972;2022-07-24T05:41:33;7.82;;;7.03;;
11709;SDS011;5911;51.036;6.972;2022-07-24T05:44:01;10.02;;;7.25;;
11709;SDS011;5911;51.036;6.972;2022-07-24T05:46:29;9.52;;;7.57;;
11709;SDS011;5911;51.036;6.972;2022-07-24T05:48:57;11.38;;;7.93;;
11709;SDS011;5911;51.036;6.972;2022-07-24T05:51:24;9.48;;;7.47;;
11709;SDS011;5911;51.036;6.972;2022-07-24T05:53:52;10.85;;;7.45;;
11709;SDS011;5911;51.036;6.972;2022-07-24T05:56:22;9.18;;;7.57;;
11709;SDS011;5911;51.036;6.972;2022-07-24T05:58:50;8.45;;;6.85;;
11709;SDS011;5911;51.036;6.972;2022-07-24T06:01:18;9.35;;;7.28;;
11709;SDS011;5911;51.036;6.972;2022-07-24T06:03:46;10.55;;;7.25;;
11709;SDS011;5911;51.036;6.972;2022-07-24T06:06:14;11.25;;;8.00;;
11709;SDS011;5911;51.036;6.972;2022-07-24T06:08:42;11.80;;;8.40;;
11709;SDS011;5911;51.036;6.972;2022-07-24T06:11:11;11.38;;;8.38;;
11709;SDS011;5911;51.036;6.972;2022-07-24T06:13:41;9.27;;;7.35;;
11709;SDS011;5911;51.036;6.972;2022-07-24T06:16:09;8.68;;;7.18;;
11709;SDS011;5911;51.036;6.972;2022-07-24T06:18:37;8.32;;;6.75;;
11709;SDS011;5911;51.036;6.972;2022-07-24T06:21:06;7.80;;;6.18;;
11709;SDS011;5911;51.036;6.972;2022-07-24T06:23:34;10.60;;;6.97;;
11709;SDS011;5911;51.036;6.972;2022-07-24T06:26:02;6.93;;;6.03;;
11709;SDS011;5911;51.036;6.972;2022-07-24T06:28:30;7.50;;;6.22;;
11709;SDS011;5911;51.036;6.972;2022-07-24T06:30:59;6.78;;;6.07;;
11709;SDS011;5911;51.036;6.972;2022-07-24T06:33:28;7.18;;;6.00;;
11709;SDS011;5911;51.036;6.972;2022-07-24T06:35:56;8.68;;;5.72;;
11709;SDS011;5911;51.036;6.972;2022-07-24T06:38:24;9.55;;;6.47;;
11709;SDS011;5911;51.036;6.972;2022-07-24T06:40:55;8.40;;;6.07;;
11709;SDS011;5911;51.036;6.972;2022-07-24T06:43:24;8.95;;;6.18;;
11709;SDS011;5911;51.036;6.972;2022-07-24T06:45:52;7.55;;;6.10;;
11709;SDS011;5911;51.036;6.972;2022-07-24T06:48:21;9.07;;;6.45;;
11709;SDS011;5911;51.036;6.972;2022-07-24T06:50:49;5.88;;;5.30;;
11709;SDS011;5911;51.036;6.972;2022-07-24T06:53:19;7.75;;;5.45;;
11709;SDS011;5911;51.036;6.972;2022-07-24T06:55:51;6.13;;;5.40;;
11709;SDS011;5911;51.036;6.972;2022-07-24T06:58:20;7.88;;;5.57;;
11709;SDS011;5911;51.036;6.972;2022-07-24T07:00:49;5.65;;;5.15;;
11709;SDS011;5911;51.036;6.972;2022-07-24T07:03:17;6.47;;;5.88;;
11709;SDS011;5911;51.036;6.972;2022-07-24T07:05:49;6.55;;;5.38;;
11709;SDS011;5911;51.036;6.972;2022-07-24T07:08:20;6.68;;;4.97;;
11709;SDS011;5911;51.036;6.972;2022-07-24T07:10:48;6.45;;;5.15;;
11709;SDS011;5911;51.036;6.972;2022-07-24T07:13:15;6.28;;;5.60;;
11709;SDS011;5911;51.036;6.972;2022-07-24T07:15:43;5.47;;;4.90;;
11709;SDS011;5911;51.036;6.972;2022-07-24T07:18:11;5.60;;;5.05;;
11709;SDS011;5911;51.036;6.972;2022-07-24T07:20:41;5.88;;;5.28;;
11709;SDS011;5911;51.036;6.972;2022-07-24T07:23:10;5.30;;;4.80;;
11709;SDS011;5911;51.036;6.972;2022-07-24T07:25:38;6.25;;;5.65;;
11709;SDS011;5911;51.036;6.972;2022-07-24T07:28:08;6.13;;;5.40;;
11709;SDS011;5911;51.036;6.972;2022-07-24T07:30:38;6.60;;;5.32;;
11709;SDS011;5911;51.036;6.972;2022-07-24T07:33:07;6.22;;;5.63;;
11709;SDS011;5911;51.036;6.972;2022-07-24T07:35:35;6.63;;;5.82;;
11709;SDS011;5911;51.036;6.972;2022-07-24T07:38:05;5.88;;;5.38;;
11709;SDS011;5911;51.036;6.972;2022-07-24T07:40:34;6.30;;;5.70;;
11709;SDS011;5911;51.036;6.972;2022-07-24T07:43:02;6.60;;;5.78;;
11709;SDS011;5911;51.036;6.972;2022-07-24T07:45:30;6.53;;;5.72;;
11709;SDS011;5911;51.036;6.972;2022-07-24T07:48:00;5.93;;;5.43;;
11709;SDS011;5911;51.036;6.972;2022-07-24T07:50:28;6.53;;;5.80;;
11709;SDS011;5911;51.036;6.972;2022-07-24T07:52:56;6.40;;;5.80;;
11709;SDS011;5911;51.036;6.972;2022-07-24T07:55:24;5.93;;;5.32;;
11709;SDS011;5911;51.036;6.972;2022-07-24T07:57:53;7.25;;;5.90;;
11709;SDS011;5911;51.036;6.972;2022-07-24T08:00:31;6.75;;;6.10;;
11709;SDS011;5911;51.036;6.972;2022-07-24T08:03:00;6.07;;;5.53;;
11709;SDS011;5911;51.036;6.972;2022-07-24T08:05:28;7.32;;;5.80;;
11709;SDS011;5911;51.036;6.972;2022-07-24T08:07:56;6.15;;;5.57;;
11709;SDS011;5911;51.036;6.972;2022-07-24T08:10:24;6.03;;;5.43;;
11709;SDS011;5911;51.036;6.972;2022-07-24T08:12:54;6.28;;;5.65;;
11709;SDS011;5911;51.036;6.972;2022-07-24T08:15:22;6.35;;;5.72;;
11709;SDS011;5911;51.036;6.972;2022-07-24T08:17:53;7.13;;;6.43;;
11709;SDS011;5911;51.036;6.972;2022-07-24T08:20:22;6.10;;;5.60;;
11709;SDS011;5911;51.036;6.972;2022-07-24T08:22:53;5.60;;;5.10;;
11709;SDS011;5911;51.036;6.972;2022-07-24T08:25:24;7.10;;;5.45;;
11709;SDS011;5911;51.036;6.972;2022-07-24T08:27:51;9.32;;;6.00;;
11709;SDS011;5911;51.036;6.972;2022-07-24T08:30:21;6.13;;;5.63;;
11709;SDS011;5911;51.036;6.972;2022-07-24T08:32:50;7.57;;;5.85;;
11709;SDS011;5911;51.036;6.972;2022-07-24T08:35:17;6.45;;;5.85;;
11709;SDS011;5911;51.036;6.972;2022-07-24T08:37:46;6.75;;;6.13;;
11709;SDS011;5911;51.036;6.972;2022-07-24T08:40:14;6.35;;;5.80;;
11709;SDS011;5911;51.036;6.972;2022-07-24T08:42:42;7.45;;;6.35;;
11709;SDS011;5911;51.036;6.972;2022-07-24T08:45:12;7.00;;;5.43;;
11709;SDS011;5911;51.036;6.972;2022-07-24T08:47:40;6.63;;;5.78;;
11709;SDS011;5911;51.036;6.972;2022-07-24T08:50:09;7.22;;;6.00;;
11709;SDS011;5911;51.036;6.972;2022-07-24T08:52:37;6.38;;;5.75;;
11709;SDS011;5911;51.036;6.972;2022-07-24T08:55:10;6.22;;;5.65;;
11709;SDS011;5911;51.036;6.972;2022-07-24T08:57:38;7.90;;;5.78;;
11709;SDS011;5911;51.036;6.972;2022-07-24T09:00:07;7.20;;;6.07;;
11709;SDS011;5911;51.036;6.972;2022-07-24T09:02:39;6.10;;;5.50;;
11709;SDS011;5911;51.036;6.972;2022-07-24T09:05:08;7.50;;;5.68;;
11709;SDS011;5911;51.036;6.972;2022-07-24T09:07:36;6.13;;;5.53;;
11709;SDS011;5911;51.036;6.972;2022-07-24T09:10:04;6.70;;;6.10;;
11709;SDS011;5911;51.036;6.972;2022-07-24T09:12:34;6.32;;;5.70;;
11709;SDS011;5911;51.036;6.972;2022-07-24T09:15:10;7.13;;;6.00;;
11709;SDS011;5911;51.036;6.972;2022-07-24T09:17:48;7.22;;;5.60;;
11709;SDS011;5911;51.036;6.972;2022-07-24T09:20:18;6.97;;;6.38;;
11709;SDS011;5911;51.036;6.972;2022-07-24T09:22:47;7.35;;;5.88;;
11709;SDS011;5911;51.036;6.972;2022-07-24T09:25:15;7.43;;;6.50;;
11709;SDS011;5911;51.036;6.972;2022-07-24T09:27:46;6.47;;;5.88;;
11709;SDS011;5911;51.036;6.972;2022-07-24T09:30:24;8.68;;;6.30;;
11709;SDS011;5911;51.036;6.972;2022-07-24T09:32:57;9.32;;;6.22;;
11709;SDS011;5911;51.036;6.972;2022-07-24T09:35:29;9.30;;;6.78;;
11709;SDS011;5911;51.036;6.972;2022-07-24T09:37:59;8.05;;;6.25;;
11709;SDS011;5911;51.036;6.972;2022-07-24T09:40:29;7.00;;;6.10;;
11709;SDS011;5911;51.036;6.972;2022-07-24T09:43:11;6.68;;;6.07;;
11709;SDS011;5911;51.036;6.972;2022-07-24T09:45:50;6.20;;;5.60;;
11709;SDS011;5911;51.036;6.972;2022-07-24T09:48:28;6.72;;;5.88;;
11709;SDS011;5911;51.036;6.972;2022-07-24T09:50:59;6.38;;;5.78;;
11709;SDS011;5911;51.036;6.972;2022-07-24T09:53:29;7.25;;;6.00;;
11709;SDS011;5911;51.036;6.972;2022-07-24T09:56:04;7.03;;;6.05;;
11709;SDS011;5911;51.036;6.972;2022-07-24T09:58:33;6.68;;;6.07;;
11709;SDS011;5911;51.036;6.972;2022-07-24T10:01:03;7.50;;;6.50;;
11709;SDS011;5911;51.036;6.972;2022-07-24T10:03:34;7.30;;;6.32;;
11709;SDS011;5911;51.036;6.972;2022-07-24T10:06:05;6.68;;;6.07;;
11709;SDS011;5911;51.036;6.972;2022-07-24T10:08:38;8.13;;;6.43;;
11709;SDS011;5911;51.036;6.972;2022-07-24T10:11:08;7.32;;;6.47;;
11709;SDS011;5911;51.036;6.972;2022-07-24T10:13:37;6.07;;;5.47;;
11709;SDS011;5911;51.036;6.972;2022-07-24T10:18:57;6.22;;;5.40;;
11709;SDS011;5911;51.036;6.972;2022-07-24T10:21:27;6.60;;;6.00;;
11709;SDS011;5911;51.036;6.972;2022-07-24T10:27:24;7.32;;;6.18;;
11709;SDS011;5911;51.036;6.972;2022-07-24T10:29:55;5.78;;;5.28;;
11709;SDS011;5911;51.036;6.972;2022-07-24T10:32:25;6.03;;;5.53;;
11709;SDS011;5911;51.036;6.972;2022-07-24T10:35:08;6.00;;;5.22;;
11709;SDS011;5911;51.036;6.972;2022-07-24T10:37:51;6.07;;;5.50;;
11709;SDS011;5911;51.036;6.972;2022-07-24T10:40:23;6.85;;;5.63;;
11709;SDS011;5911;51.036;6.972;2022-07-24T10:43:08;5.75;;;5.05;;
11709;SDS011;5911;51.036;6.972;2022-07-24T10:45:38;5.93;;;5.40;;
11709;SDS011;5911;51.036;6.972;2022-07-24T10:51:03;5.55;;;5.05;;
11709;SDS011;5911;51.036;6.972;2022-07-24T10:53:46;6.28;;;5.05;;
11709;SDS011;5911;51.036;6.972;2022-07-24T10:56:16;6.30;;;5.70;;
11709;SDS011;5911;51.036;6.972;2022-07-24T10:58:52;7.55;;;5.38;;
11709;SDS011;5911;51.036;6.972;2022-07-24T11:01:31;8.02;;;5.60;;
11709;SDS011;5911;51.036;6.972;2022-07-24T11:04:01;5.70;;;5.10;;
11709;SDS011;5911;51.036;6.972;2022-07-24T11:06:39;5.38;;;4.85;;
11709;SDS011;5911;51.036;6.972;2022-07-24T11:09:09;6.50;;;5.40;;
11709;SDS011;5911;51.036;6.972;2022-07-24T11:11:41;5.40;;;4.90;;
11709;SDS011;5911;51.036;6.972;2022-07-24T11:14:10;7.07;;;5.30;;
11709;SDS011;5911;51.036;6.972;2022-07-24T11:16:38;5.95;;;5.10;;
11709;SDS011;5911;51.036;6.972;2022-07-24T11:19:26;5.85;;;5.22;;
11709;SDS011;5911;51.036;6.972;2022-07-24T11:22:04;6.55;;;5.90;;
11709;SDS011;5911;51.036;6.972;2022-07-24T11:24:33;5.80;;;5.30;;
11709;SDS011;5911;51.036;6.972;2022-07-24T11:27:05;8.07;;;5.22;;
11709;SDS011;5911;51.036;6.972;2022-07-24T11:29:35;5.25;;;4.78;;
11709;SDS011;5911;51.036;6.972;2022-07-24T11:32:05;5.75;;;5.18;;
11709;SDS011;5911;51.036;6.972;2022-07-24T11:34:42;5.60;;;5.10;;
11709;SDS011;5911;51.036;6.972;2022-07-24T11:37:13;5.68;;;4.72;;
11709;SDS011;5911;51.036;6.972;2022-07-24T11:39:42;5.35;;;4.85;;
11709;SDS011;5911;51.036;6.972;2022-07-24T11:42:12;5.60;;;4.80;;
11709;SDS011;5911;51.036;6.972;2022-07-24T11:44:42;5.75;;;4.85;;
11709;SDS011;5911;51.036;6.972;2022-07-24T11:47:11;4.80;;;4.40;;
11709;SDS011;5911;51.036;6.972;2022-07-24T11:49:41;5.38;;;4.88;;
11709;SDS011;5911;51.036;6.972;2022-07-24T11:52:16;5.28;;;4.78;;
11709;SDS011;5911;51.036;6.972;2022-07-24T11:54:45;6.25;;;4.53;;
11709;SDS011;5911;51.036;6.972;2022-07-24T11:57:16;6.80;;;5.20;;
11709;SDS011;5911;51.036;6.972;2022-07-24T12:00:06;5.28;;;4.72;;
11709;SDS011;5911;51.036;6.972;2022-07-24T12:02:42;6.32;;;4.68;;
11709;SDS011;5911;51.036;6.972;2022-07-24T12:05:11;5.32;;;4.82;;
11709;SDS011;5911;51.036;6.972;2022-07-24T12:07:40;7.57;;;5.03;;
11709;SDS011;5911;51.036;6.972;2022-07-24T12:10:08;4.75;;;4.35;;
11709;SDS011;5911;51.036;6.972;2022-07-24T12:12:37;6.03;;;4.78;;
11709;SDS011;5911;51.036;6.972;2022-07-24T12:15:07;4.78;;;4.38;;
11709;SDS011;5911;51.036;6.972;2022-07-24T12:17:53;5.78;;;4.55;;
11709;SDS011;5911;51.036;6.972;2022-07-24T12:20:24;5.40;;;4.57;;
11709;SDS011;5911;51.036;6.972;2022-07-24T12:22:55;5.15;;;4.65;;
11709;SDS011;5911;51.036;6.972;2022-07-24T12:25:24;5.05;;;4.45;;
11709;SDS011;5911;51.036;6.972;2022-07-24T12:28:01;6.80;;;5.05;;
11709;SDS011;5911;51.036;6.972;2022-07-24T12:30:31;4.38;;;3.97;;
11709;SDS011;5911;51.036;6.972;2022-07-24T12:33:04;4.93;;;4.43;;
11709;SDS011;5911;51.036;6.972;2022-07-24T12:35:50;4.70;;;4.30;;
11709;SDS011;5911;51.036;6.972;2022-07-24T12:38:25;5.00;;;4.40;;
11709;SDS011;5911;51.036;6.972;2022-07-24T12:41:06;6.75;;;4.38;;
11709;SDS011;5911;51.036;6.972;2022-07-24T12:43:45;4.35;;;3.95;;
11709;SDS011;5911;51.036;6.972;2022-07-24T12:46:14;5.38;;;4.88;;
11709;SDS011;5911;51.036;6.972;2022-07-24T12:48:55;5.03;;;4.50;;
11709;SDS011;5911;51.036;6.972;2022-07-24T12:51:24;5.40;;;4.13;;
11709;SDS011;5911;51.036;6.972;2022-07-24T12:53:54;7.82;;;4.38;;
11709;SDS011;5911;51.036;6.972;2022-07-24T12:56:23;4.85;;;4.40;;
11709;SDS011;5911;51.036;6.972;2022-07-24T12:58:55;6.38;;;4.38;;
11709;SDS011;5911;51.036;6.972;2022-07-24T13:01:26;7.38;;;4.35;;
11709;SDS011;5911;51.036;6.972;2022-07-24T13:03:57;5.18;;;4.68;;
11709;SDS011;5911;51.036;6.972;2022-07-24T13:06:30;5.13;;;4.72;;
11709;SDS011;5911;51.036;6.972;2022-07-24T13:09:04;5.60;;;4.43;;
11709;SDS011;5911;51.036;6.972;2022-07-24T13:11:34;5.22;;;4.68;;
11709;SDS011;5911;51.036;6.972;2022-07-24T13:14:05;5.30;;;4.80;;
11709;SDS011;5911;51.036;6.972;2022-07-24T13:16:34;5.18;;;4.68;;
11709;SDS011;5911;51.036;6.972;2022-07-24T13:19:04;5.22;;;4.78;;
11709;SDS011;5911;51.036;6.972;2022-07-24T13:21:32;6.20;;;4.45;;
11709;SDS011;5911;51.036;6.972;2022-07-24T13:24:01;7.28;;;4.82;;
11709;SDS011;5911;51.036;6.972;2022-07-24T13:26:31;4.78;;;4.28;;
11709;SDS011;5911;51.036;6.972;2022-07-24T13:28:59;5.32;;;4.40;;
11709;SDS011;5911;51.036;6.972;2022-07-24T13:31:27;5.53;;;5.00;;
11709;SDS011;5911;51.036;6.972;2022-07-24T13:33:55;5.15;;;4.72;;
11709;SDS011;5911;51.036;6.972;2022-07-24T13:36:23;6.65;;;5.15;;
11709;SDS011;5911;51.036;6.972;2022-07-24T13:38:53;5.30;;;4.43;;
11709;SDS011;5911;51.036;6.972;2022-07-24T13:41:23;7.03;;;4.88;;
11709;SDS011;5911;51.036;6.972;2022-07-24T13:43:52;8.45;;;4.70;;
11709;SDS011;5911;51.036;6.972;2022-07-24T13:46:20;6.03;;;4.97;;
11709;SDS011;5911;51.036;6.972;2022-07-24T13:48:49;5.78;;;5.10;;
11709;SDS011;5911;51.036;6.972;2022-07-24T13:51:23;5.43;;;4.90;;
11709;SDS011;5911;51.036;6.972;2022-07-24T13:53:51;5.35;;;4.43;;
11709;SDS011;5911;51.036;6.972;2022-07-24T13:56:19;5.03;;;4.63;;
11709;SDS011;5911;51.036;6.972;2022-07-24T13:58:48;5.40;;;4.75;;
11709;SDS011;5911;51.036;6.972;2022-07-24T14:01:20;7.25;;;5.32;;
11709;SDS011;5911;51.036;6.972;2022-07-24T14:04:00;6.22;;;4.85;;
11709;SDS011;5911;51.036;6.972;2022-07-24T14:06:49;4.90;;;4.40;;
11709;SDS011;5911;51.036;6.972;2022-07-24T14:09:17;5.00;;;4.28;;
11709;SDS011;5911;51.036;6.972;2022-07-24T14:11:45;5.13;;;4.63;;
11709;SDS011;5911;51.036;6.972;2022-07-24T14:14:13;5.35;;;4.82;;
11709;SDS011;5911;51.036;6.972;2022-07-24T14:16:45;5.68;;;4.78;;
11709;SDS011;5911;51.036;6.972;2022-07-24T14:19:13;5.07;;;4.68;;
11709;SDS011;5911;51.036;6.972;2022-07-24T14:21:41;4.90;;;4.50;;
11709;SDS011;5911;51.036;6.972;2022-07-24T14:24:13;6.10;;;4.93;;
11709;SDS011;5911;51.036;6.972;2022-07-24T14:26:42;4.97;;;4.47;;
11709;SDS011;5911;51.036;6.972;2022-07-24T14:29:11;4.80;;;4.40;;
11709;SDS011;5911;51.036;6.972;2022-07-24T14:31:39;6.00;;;5.20;;
11709;SDS011;5911;51.036;6.972;2022-07-24T14:34:11;5.28;;;4.78;;
11709;SDS011;5911;51.036;6.972;2022-07-24T14:36:39;5.63;;;4.70;;
11709;SDS011;5911;51.036;6.972;2022-07-24T14:39:11;4.78;;;3.90;;
11709;SDS011;5911;51.036;6.972;2022-07-24T14:41:40;4.40;;;4.00;;
11709;SDS011;5911;51.036;6.972;2022-07-24T14:44:13;4.82;;;4.38;;
11709;SDS011;5911;51.036;6.972;2022-07-24T14:46:41;4.20;;;3.90;;
11709;SDS011;5911;51.036;6.972;2022-07-24T14:49:11;5.05;;;4.30;;
11709;SDS011;5911;51.036;6.972;2022-07-24T14:51:39;5.95;;;4.90;;
11709;SDS011;5911;51.036;6.972;2022-07-24T14:54:09;4.60;;;4.20;;
11709;SDS011;5911;51.036;6.972;2022-07-24T14:56:40;4.82;;;4.43;;
11709;SDS011;5911;51.036;6.972;2022-07-24T14:59:08;4.35;;;3.95;;
11709;SDS011;5911;51.036;6.972;2022-07-24T15:01:46;4.85;;;4.35;;
11709;SDS011;5911;51.036;6.972;2022-07-24T15:04:15;4.97;;;4.47;;
11709;SDS011;5911;51.036;6.972;2022-07-24T15:06:43;4.32;;;3.95;;
11709;SDS011;5911;51.036;6.972;2022-07-24T15:09:13;4.72;;;4.32;;
11709;SDS011;5911;51.036;6.972;2022-07-24T15:11:41;4.40;;;4.00;;
11709;SDS011;5911;51.036;6.972;2022-07-24T15:14:09;4.75;;;4.35;;
11709;SDS011;5911;51.036;6.972;2022-07-24T15:16:39;4.47;;;4.18;;
11709;SDS011;5911;51.036;6.972;2022-07-24T15:19:07;4.32;;;3.92;;
11709;SDS011;5911;51.036;6.972;2022-07-24T15:21:40;4.70;;;4.20;;
11709;SDS011;5911;51.036;6.972;2022-07-24T15:24:09;5.43;;;4.65;;
11709;SDS011;5911;51.036;6.972;2022-07-24T15:26:37;7.43;;;4.43;;
11709;SDS011;5911;51.036;6.972;2022-07-24T15:29:07;5.47;;;4.55;;